Time;durP1;ratioP1;P1;durP2;ratioP2;P2;SDS_P1;SDS_P2;PMS_P1;PMS_P2;Temp;Humidity;BMP_temperature;BMP_pressure;BME280_temperature;BME280_humidity;BME280_pressure;Samples;Min_cycle;Max_cycle;Signal;HPM_P1;HPM_P2
2024/04/11 00:08:40;;;;;;;;;;;16.40;49.00;;;;;;23183865;25;19993;-55
2024/04/11 00:18:41;;;;;;;;;;;16.30;49.40;;;;;;23184983;25;19927;-56
2024/04/11 00:28:42;;;;;;;;;;;16.20;49.90;;;;;;23183411;25;19927;-56
2024/04/11 00:38:44;;;;;;;;;;;16.20;49.90;;;;;;23181846;25;19994;-57
2024/04/11 00:48:45;;;;;;;;;;;16.20;50.00;;;;;;23186979;25;19926;-56
2024/04/11 00:58:47;;;;;;;;;;;16.20;50.10;;;;;;23195857;25;19970;-57
2024/04/11 01:08:51;;;;;;;;;;;16.20;50.10;;;;;;23195527;25;19975;-57
2024/04/11 01:18:55;;;;;;;;;;;16.10;50.40;;;;;;23193920;25;19926;-58
2024/04/11 01:28:57;;;;;;;;;;;15.90;50.60;;;;;;23193813;25;19938;-56
2024/04/11 01:38:58;;;;;;;;;;;15.90;50.80;;;;;;23193986;25;19974;-56
2024/04/11 01:49:00;;;;;;;;;;;15.80;51.20;;;;;;23192256;25;19927;-57
2024/04/11 01:59:03;;;;;;;;;;;15.80;51.50;;;;;;23191326;25;20268;-56
2024/04/11 02:09:09;;;;;;;;;;;15.70;52.10;;;;;;23190957;25;19933;-57
2024/04/11 02:19:12;;;;;;;;;;;15.50;53.50;;;;;;23191841;25;19926;-58
2024/04/11 02:29:14;;;;;;;;;;;15.20;54.80;;;;;;23191270;25;19934;-56
2024/04/11 02:39:16;;;;;;;;;;;15.00;56.00;;;;;;23191097;25;19933;-56
2024/04/11 02:49:18;;;;;;;;;;;14.80;56.90;;;;;;23190436;25;19926;-57
2024/04/11 02:59:19;;;;;;;;;;;14.70;57.60;;;;;;23189574;25;20328;-56
2024/04/11 03:09:20;;;;;;;;;;;14.50;57.90;;;;;;23185816;25;19926;-57
2024/04/11 03:19:21;;;;;;;;;;;14.40;58.80;;;;;;23186255;25;19927;-57
2024/04/11 03:29:22;;;;;;;;;;;14.20;59.80;;;;;;23185016;25;19934;-57
2024/04/11 03:39:25;;;;;;;;;;;14.10;60.10;;;;;;23184458;25;19926;-56
2024/04/11 03:49:26;;;;;;;;;;;13.90;60.70;;;;;;23183480;25;19937;-57
2024/04/11 03:59:28;;;;;;;;;;;13.90;61.50;;;;;;23182368;25;19958;-57
2024/04/11 04:09:29;;;;;;;;;;;13.70;61.90;;;;;;23181570;25;19934;-56
2024/04/11 04:19:30;;;;;;;;;;;13.70;62.60;;;;;;23099753;25;19934;-56
2024/04/11 04:29:31;;;;;;;;;;;13.50;63.20;;;;;;23034174;25;20349;-57
2024/04/11 04:39:37;;;;;;;;;;;13.40;63.20;;;;;;23037833;25;19963;-56
2024/04/11 04:49:38;;;;;;;;;;;13.40;63.10;;;;;;23037468;25;20269;-57
2024/04/11 04:59:41;;;;;;;;;;;13.40;62.90;;;;;;23037224;25;19926;-56
2024/04/11 05:09:46;;;;;;;;;;;13.40;62.80;;;;;;23037720;25;20356;-57
2024/04/11 05:19:46;;;;;;;;;;;13.30;62.80;;;;;;23036790;25;19992;-56
2024/04/11 05:29:48;;;;;;;;;;;13.20;62.70;;;;;;23036392;25;20341;-56
2024/04/11 05:39:49;;;;;;;;;;;13.20;62.90;;;;;;23035615;25;19934;-57
2024/04/11 05:49:50;;;;;;;;;;;13.10;63.20;;;;;;23034276;25;19933;-56
2024/04/11 05:59:51;;;;;;;;;;;13.10;63.50;;;;;;23034130;25;19955;-57
2024/04/11 06:09:54;;;;;;;;;;;13.00;63.80;;;;;;23032260;25;19927;-56
2024/04/11 06:19:55;;;;;;;;;;;13.00;63.60;;;;;;23032414;25;19927;-56
2024/04/11 06:29:58;;;;;;;;;;;12.90;63.70;;;;;;23031043;25;19927;-57
2024/04/11 06:39:59;;;;;;;;;;;13.10;63.40;;;;;;23031489;25;19927;-58
2024/04/11 06:50:10;;;;;;;;;;;13.20;63.00;;;;;;23031218;25;20053;-57
2024/04/11 07:00:35;;;;;;;;;;;13.30;62.80;;;;;;23028940;25;19955;-56
2024/04/11 07:10:37;;;;;;;;;;;13.80;62.00;;;;;;23029279;25;19927;-56
2024/04/11 07:20:39;;;;;;;;;;;14.50;60.40;;;;;;23029285;25;19931;-56
2024/04/11 07:30:41;;;;;;;;;;;14.80;59.40;;;;;;23029240;25;19952;-56
2024/04/11 07:40:45;;;;;;;;;;;15.20;57.90;;;;;;23028183;25;19926;-57
2024/04/11 07:50:46;;;;;;;;;;;15.80;56.00;;;;;;23027424;25;19926;-56
2024/04/11 08:00:47;;;;;;;;;;;16.20;54.90;;;;;;23026813;25;20022;-55
2024/04/11 08:11:02;;;;;;;;;;;16.50;53.30;;;;;;23025791;25;19927;-56
2024/04/11 08:21:09;;;;;;;;;;;16.80;52.80;;;;;;23024528;25;20423;-56
2024/04/11 08:31:13;;;;;;;;;;;17.10;52.40;;;;;;23024699;25;19946;-56
2024/04/11 08:41:20;;;;;;;;;;;17.40;51.10;;;;;;23025781;25;20321;-56
2024/04/11 08:51:22;;;;;;;;;;;18.20;48.20;;;;;;23022332;25;19995;-56
2024/04/11 09:01:23;;;;;;;;;;;18.00;48.00;;;;;;23022086;25;19927;-57
2024/04/11 09:11:27;;;;;;;;;;;18.20;47.60;;;;;;23026242;25;19935;-57
2024/04/11 09:21:30;;;;;;;;;;;18.40;46.80;;;;;;23036183;25;20288;-56
2024/04/11 09:31:33;;;;;;;;;;;18.50;46.20;;;;;;23035899;25;19935;-57
2024/04/11 09:41:34;;;;;;;;;;;18.70;48.50;;;;;;23035642;25;20047;-56
2024/04/11 09:51:37;;;;;;;;;;;18.80;48.80;;;;;;23034377;25;19927;-57
2024/04/11 10:01:40;;;;;;;;;;;19.30;46.80;;;;;;23034284;25;19939;-57
2024/04/11 10:11:45;;;;;;;;;;;19.10;47.10;;;;;;23033269;25;19927;-57
2024/04/11 10:21:49;;;;;;;;;;;;;;;;;;23033369;25;19927;-57
2024/04/11 10:31:56;;;;;;;;;;;;;;;;;;23032567;25;20258;-56
2024/04/11 10:41:57;;;;;;;;;;;;;;;;;;23030089;25;19927;-57
2024/04/11 10:51:59;;;;;;;;;;;;;;;;;;23028293;25;19998;-56
2024/04/11 11:02:09;;;;;;;;;;;;;;;;;;23028727;25;19934;-56
2024/04/11 11:12:15;;;;;;;;;;;;;;;;;;23030462;25;19935;-56
2024/04/11 11:22:18;;;;;;;;;;;;;;;;;;23029745;25;20326;-57
2024/04/11 11:32:20;;;;;;;;;;;;;;;;;;23028984;25;20256;-56
2024/04/11 11:42:26;;;;;;;;;;;;;;;;;;23029813;25;19927;-56
2024/04/11 11:52:31;;;;;;;;;;;;;;;;;;23028369;25;20348;-56
2024/04/11 12:02:33;;;;;;;;;;;;;;;;;;23027267;25;19926;-57
2024/04/11 12:12:34;;;;;;;;;;;;;;;;;;23024885;25;19974;-56
2024/04/11 12:22:36;;;;;;;;;;;;;;;;;;23024453;25;19927;-57
2024/04/11 12:32:41;;;;;;;;;;;;;;;;;;23024389;25;19959;-57
2024/04/11 12:42:44;;;;;;;;;;;;;;;;;;23023984;25;19951;-57
2024/04/11 12:52:45;;;;;;;;;;;23.10;37.90;;;;;;23037605;25;19967;-56
2024/04/11 13:02:48;;;;;;;;;;;22.90;38.60;;;;;;23036907;25;19975;-56
2024/04/11 13:12:53;;;;;;;;;;;23.10;37.60;;;;;;23037350;25;19935;-56
2024/04/11 13:23:09;;;;;;;;;;;23.40;37.00;;;;;;23037554;25;19934;-56
2024/04/11 13:33:14;;;;;;;;;;;23.60;37.10;;;;;;23035993;25;19927;-56
2024/04/11 13:43:17;;;;;;;;;;;23.60;37.20;;;;;;23038456;25;19955;-57
2024/04/11 13:53:21;;;;;;;;;;;23.90;36.60;;;;;;23036248;25;19954;-58
2024/04/11 14:03:23;;;;;;;;;;;24.00;36.90;;;;;;23035331;25;19933;-57
2024/04/11 14:13:26;;;;;;;;;;;24.20;35.90;;;;;;23033789;25;19995;-56
2024/04/11 14:23:47;;;;;;;;;;;24.20;36.00;;;;;;23034145;25;19994;-56
2024/04/11 14:43:59;;;;;;;;;;;24.30;35.60;;;;;;23034252;25;19927;-56
2024/04/11 14:54:05;;;;;;;;;;;24.40;35.70;;;;;;23033796;25;20367;-57
2024/04/11 15:04:06;;;;;;;;;;;24.40;35.00;;;;;;23032349;25;19933;-57
2024/04/11 15:14:08;;;;;;;;;;;24.50;34.90;;;;;;23030826;25;19933;-56
2024/04/11 15:24:13;;;;;;;;;;;24.50;35.40;;;;;;23030291;25;19927;-56
2024/04/11 15:34:16;;;;;;;;;;;24.60;35.70;;;;;;23029645;25;19926;-57
2024/04/11 15:44:19;;;;;;;;;;;24.80;33.40;;;;;;23029791;25;19938;-57
2024/04/11 15:54:55;;;;;;;;;;;24.90;33.10;;;;;;23030129;25;20130;-57
2024/04/11 16:04:58;;;;;;;;;;;24.90;33.00;;;;;;23028315;25;19927;-54
2024/04/11 16:15:00;;;;;;;;;;;24.60;33.90;;;;;;23112786;25;19926;-54
2024/04/11 16:25:06;;;;;;;;;;;24.50;33.90;;;;;;23185058;25;19966;-55
2024/04/11 16:35:08;;;;;;;;;;;24.60;34.00;;;;;;23182988;25;19939;-56
2024/04/11 16:45:24;;;;;;;;;;;24.70;33.90;;;;;;23176154;25;19926;-55
2024/04/11 16:55:31;;;;;;;;;;;24.70;33.40;;;;;;23182235;25;19926;-56
2024/04/11 17:05:40;;;;;;;;;;;25.00;33.20;;;;;;23180181;25;19934;-57
2024/04/11 17:15:52;;;;;;;;;;;25.10;34.20;;;;;;23181347;25;19927;-56
2024/04/11 17:25:53;;;;;;;;;;;25.00;34.40;;;;;;23173087;25;20371;-56
2024/04/11 17:35:57;;;;;;;;;;;24.90;35.00;;;;;;23188663;25;20355;-57
2024/04/11 17:45:58;;;;;;;;;;;24.90;34.60;;;;;;23190075;25;19927;-56
2024/04/11 17:56:09;;;;;;;;;;;24.70;35.40;;;;;;23190010;25;19926;-55
2024/04/11 18:06:14;;;;;;;;;;;24.70;35.30;;;;;;23190438;25;19934;-56
2024/04/11 18:16:17;;;;;;;;;;;24.60;35.60;;;;;;23184711;25;19936;-56
2024/04/11 18:26:18;;;;;;;;;;;24.40;35.80;;;;;;23014269;25;19931;-56
2024/04/11 18:36:25;;;;;;;;;;;24.30;36.40;;;;;;23005418;25;20383;-57
2024/04/11 18:46:29;;;;;;;;;;;24.00;37.60;;;;;;23011906;25;19930;-56
2024/04/11 18:56:30;;;;;;;;;;;23.90;38.20;;;;;;23021684;25;20353;-56
2024/04/11 19:06:31;;;;;;;;;;;23.70;38.60;;;;;;23031498;25;19963;-56
2024/04/11 19:16:36;;;;;;;;;;;23.60;39.60;;;;;;23030091;25;20259;-61
2024/04/11 19:26:37;;;;;;;;;;;23.30;39.20;;;;;;23029579;25;19937;-57
2024/04/11 19:36:38;;;;;;;;;;;23.00;34.40;;;;;;23027441;25;19927;-57
2024/04/11 19:46:41;;;;;;;;;;;22.80;33.00;;;;;;23028357;25;20046;-57
2024/04/11 19:56:46;;;;;;;;;;;22.70;32.40;;;;;;23026958;25;19927;-57
2024/04/11 20:06:47;;;;;;;;;;;22.50;32.30;;;;;;22978222;25;19935;-56
2024/04/11 20:16:48;;;;;;;;;;;22.30;32.60;;;;;;22871507;26;19927;-57
2024/04/11 20:26:53;;;;;;;;;;;22.20;31.80;;;;;;22870446;26;19931;-56
2024/04/11 20:37:02;;;;;;;;;;;22.10;32.00;;;;;;22869735;26;19995;-56
2024/04/11 21:38:26;;;;;;;;;;;21.20;34.10;;;;;;22883745;26;19976;-57
2024/04/11 21:48:29;;;;;;;;;;;21.10;34.20;;;;;;22881790;26;19928;-56
2024/04/11 21:58:30;;;;;;;;;;;20.90;34.50;;;;;;22881363;26;20276;-56
2024/04/11 22:08:35;;;;;;;;;;;20.70;34.60;;;;;;22879628;26;19927;-56
2024/04/11 22:18:39;;;;;;;;;;;20.60;34.60;;;;;;22878421;26;19934;-56
2024/04/11 22:28:40;;;;;;;;;;;20.50;34.00;;;;;;22878671;26;19936;-55
2024/04/11 22:38:49;;;;;;;;;;;20.40;34.50;;;;;;22879353;26;20396;-55
2024/04/11 22:48:51;;;;;;;;;;;20.20;35.80;;;;;;22877625;26;19927;-57
2024/04/11 22:58:58;;;;;;;;;;;19.90;37.30;;;;;;22876885;26;20310;-56
2024/04/11 23:09:08;;;;;;;;;;;19.60;37.60;;;;;;22876633;26;19934;-56
2024/04/11 23:19:15;;;;;;;;;;;19.40;37.30;;;;;;22877854;25;20395;-56
2024/04/11 23:29:16;;;;;;;;;;;19.20;37.70;;;;;;22875512;26;19955;-56
2024/04/11 23:39:32;;;;;;;;;;;19.10;37.90;;;;;;22876373;26;20000;-57
2024/04/11 23:49:45;;;;;;;;;;;18.90;37.30;;;;;;22875522;26;19995;-56
2024/04/11 23:59:55;;;;;;;;;;;18.80;37.00;;;;;;22874910;26;19927;-57
